sensor_id;sensor_type;location;lat;lon;timestamp;pressure;altitude;pressure_sealevel;temperature;humidity
59170;BME280;52474;52.236;5.114;2023-02-16T00:01:48;102386.25;;;4.37;100.00
59170;BME280;52474;52.236;5.114;2023-02-16T00:04:25;102380.34;;;4.30;100.00
59170;BME280;52474;52.236;5.114;2023-02-16T00:06:53;102328.22;;;3.96;100.00
59170;BME280;52474;52.236;5.114;2023-02-16T00:09:20;102385.72;;;4.27;100.00
59170;BME280;52474;52.236;5.114;2023-02-16T00:11:47;102372.47;;;4.30;100.00
59170;BME280;52474;52.236;5.114;2023-02-16T00:14:33;102367.47;;;4.24;100.00
59170;BME280;52474;52.236;5.114;2023-02-16T00:16:59;102379.47;;;4.32;100.00
59170;BME280;52474;52.236;5.114;2023-02-16T00:19:38;102382.09;;;4.32;100.00
59170;BME280;52474;52.236;5.114;2023-02-16T00:22:06;102384.81;;;4.28;100.00
59170;BME280;52474;52.236;5.114;2023-02-16T00:24:32;102382.97;;;4.30;100.00
59170;BME280;52474;52.236;5.114;2023-02-16T00:26:59;102383.44;;;4.43;100.00
59170;BME280;52474;52.236;5.114;2023-02-16T00:29:27;102355.06;;;4.29;100.00
59170;BME280;52474;52.236;5.114;2023-02-16T00:31:54;102375.72;;;4.39;100.00
59170;BME280;52474;52.236;5.114;2023-02-16T00:34:28;102380.00;;;4.41;100.00
59170;BME280;52474;52.236;5.114;2023-02-16T00:36:55;102331.06;;;4.15;100.00
59170;BME280;52474;52.236;5.114;2023-02-16T00:39:22;102376.69;;;4.36;100.00
59170;BME280;52474;52.236;5.114;2023-02-16T00:41:53;102374.06;;;4.36;100.00
59170;BME280;52474;52.236;5.114;2023-02-16T00:44:31;102364.84;;;4.24;100.00
59170;BME280;52474;52.236;5.114;2023-02-16T00:49:45;102365.59;;;4.28;100.00
59170;BME280;52474;52.236;5.114;2023-02-16T00:52:28;102365.03;;;4.18;100.00
59170;BME280;52474;52.236;5.114;2023-02-16T00:54:56;102376.00;;;4.04;100.00
59170;BME280;52474;52.236;5.114;2023-02-16T00:57:24;102370.09;;;3.98;100.00
59170;BME280;52474;52.236;5.114;2023-02-16T00:59:57;102340.28;;;3.75;100.00
59170;BME280;52474;52.236;5.114;2023-02-16T01:02:24;102361.75;;;3.86;100.00
59170;BME280;52474;52.236;5.114;2023-02-16T01:04:50;102339.34;;;3.76;100.00
59170;BME280;52474;52.236;5.114;2023-02-16T01:07:17;102360.69;;;3.92;100.00
59170;BME280;52474;52.236;5.114;2023-02-16T01:10:04;102337.16;;;3.91;100.00
59170;BME280;52474;52.236;5.114;2023-02-16T01:12:49;102360.69;;;4.19;100.00
59170;BME280;52474;52.236;5.114;2023-02-16T01:15:24;102330.47;;;4.07;100.00
59170;BME280;52474;52.236;5.114;2023-02-16T01:17:50;102326.25;;;4.03;100.00
59170;BME280;52474;52.236;5.114;2023-02-16T01:20:19;102321.84;;;4.03;100.00
59170;BME280;52474;52.236;5.114;2023-02-16T01:22:46;102347.72;;;4.14;100.00
59170;BME280;52474;52.236;5.114;2023-02-16T01:25:13;102356.28;;;4.19;100.00
59170;BME280;52474;52.236;5.114;2023-02-16T01:27:40;102334.25;;;3.98;100.00
59170;BME280;52474;52.236;5.114;2023-02-16T01:30:10;102350.97;;;4.21;100.00
59170;BME280;52474;52.236;5.114;2023-02-16T01:32:37;102358.75;;;4.24;100.00
59170;BME280;52474;52.236;5.114;2023-02-16T01:35:05;102335.84;;;4.04;100.00
59170;BME280;52474;52.236;5.114;2023-02-16T01:37:31;102349.09;;;4.24;100.00
59170;BME280;52474;52.236;5.114;2023-02-16T01:39:57;102353.41;;;4.27;100.00
59170;BME280;52474;52.236;5.114;2023-02-16T01:42:33;102325.47;;;4.26;100.00
59170;BME280;52474;52.236;5.114;2023-02-16T01:45:10;102351.88;;;4.45;100.00
59170;BME280;52474;52.236;5.114;2023-02-16T01:48:01;102343.03;;;4.47;100.00
59170;BME280;52474;52.236;5.114;2023-02-16T01:50:45;102342.00;;;4.53;100.00
59170;BME280;52474;52.236;5.114;2023-02-16T01:53:43;102340.84;;;4.60;100.00
59170;BME280;52474;52.236;5.114;2023-02-16T01:58:46;102327.47;;;4.68;100.00
59170;BME280;52474;52.236;5.114;2023-02-16T02:01:43;102316.88;;;4.69;100.00
59170;BME280;52474;52.236;5.114;2023-02-16T02:07:02;102313.75;;;4.83;100.00
59170;BME280;52474;52.236;5.114;2023-02-16T02:09:36;102320.63;;;4.87;100.00
59170;BME280;52474;52.236;5.114;2023-02-16T02:14:46;102328.06;;;4.98;100.00
59170;BME280;52474;52.236;5.114;2023-02-16T02:17:17;102300.47;;;4.88;100.00
59170;BME280;52474;52.236;5.114;2023-02-16T02:19:50;102308.72;;;5.01;100.00
59170;BME280;52474;52.236;5.114;2023-02-16T02:28:22;102283.94;;;4.84;100.00
59170;BME280;52474;52.236;5.114;2023-02-16T02:31:23;102285.78;;;4.82;100.00
59170;BME280;52474;52.236;5.114;2023-02-16T02:33:58;102272.84;;;4.78;100.00
59170;BME280;52474;52.236;5.114;2023-02-16T02:36:37;102299.22;;;4.97;100.00
59170;BME280;52474;52.236;5.114;2023-02-16T02:41:58;102295.25;;;5.10;100.00
59170;BME280;52474;52.236;5.114;2023-02-16T02:45:04;102266.88;;;4.96;100.00
59170;BME280;52474;52.236;5.114;2023-02-16T02:47:40;102289.81;;;5.14;100.00
59170;BME280;52474;52.236;5.114;2023-02-16T02:53:42;102291.72;;;5.09;100.00
59170;BME280;52474;52.236;5.114;2023-02-16T02:56:11;102270.72;;;5.09;100.00
59170;BME280;52474;52.236;5.114;2023-02-16T02:59:01;102258.84;;;5.01;100.00
59170;BME280;52474;52.236;5.114;2023-02-16T03:01:51;102271.69;;;5.07;100.00
59170;BME280;52474;52.236;5.114;2023-02-16T03:04:23;102268.84;;;5.13;100.00
59170;BME280;52474;52.236;5.114;2023-02-16T03:06:52;102189.84;;;4.75;100.00
59170;BME280;52474;52.236;5.114;2023-02-16T03:09:32;102252.97;;;5.16;100.00
59170;BME280;52474;52.236;5.114;2023-02-16T03:11:58;102264.13;;;5.21;100.00
59170;BME280;52474;52.236;5.114;2023-02-16T03:14:50;102262.50;;;5.19;100.00
59170;BME280;52474;52.236;5.114;2023-02-16T03:17:21;102274.72;;;5.20;100.00
59170;BME280;52474;52.236;5.114;2023-02-16T03:20:11;102261.78;;;5.15;100.00
59170;BME280;52474;52.236;5.114;2023-02-16T03:22:57;102264.97;;;5.22;100.00
59170;BME280;52474;52.236;5.114;2023-02-16T03:25:42;102245.22;;;5.13;100.00
59170;BME280;52474;52.236;5.114;2023-02-16T03:28:29;102262.44;;;5.20;100.00
59170;BME280;52474;52.236;5.114;2023-02-16T03:31:19;102268.34;;;5.25;100.00
59170;BME280;52474;52.236;5.114;2023-02-16T03:33:48;102264.81;;;5.26;100.00
59170;BME280;52474;52.236;5.114;2023-02-16T03:36:28;102240.81;;;5.13;100.00
59170;BME280;52474;52.236;5.114;2023-02-16T03:38:56;102271.84;;;5.26;100.00
59170;BME280;52474;52.236;5.114;2023-02-16T03:41:24;102259.50;;;5.28;100.00
59170;BME280;52474;52.236;5.114;2023-02-16T03:43:50;102267.44;;;5.26;100.00
59170;BME280;52474;52.236;5.114;2023-02-16T03:46:16;102241.75;;;5.12;100.00
59170;BME280;52474;52.236;5.114;2023-02-16T03:48:42;102265.69;;;5.27;100.00
59170;BME280;52474;52.236;5.114;2023-02-16T03:51:08;102263.91;;;5.27;100.00
59170;BME280;52474;52.236;5.114;2023-02-16T03:53:34;102267.38;;;5.28;100.00
59170;BME280;52474;52.236;5.114;2023-02-16T03:56:00;102274.31;;;5.29;100.00
59170;BME280;52474;52.236;5.114;2023-02-16T03:58:25;102275.06;;;5.32;100.00
59170;BME280;52474;52.236;5.114;2023-02-16T04:00:52;102275.06;;;5.32;100.00
59170;BME280;52474;52.236;5.114;2023-02-16T04:03:18;102276.72;;;5.35;100.00
59170;BME280;52474;52.236;5.114;2023-02-16T04:05:44;102263.81;;;5.29;100.00
59170;BME280;52474;52.236;5.114;2023-02-16T04:08:10;102274.75;;;5.40;100.00
59170;BME280;52474;52.236;5.114;2023-02-16T04:10:36;102255.44;;;5.41;100.00
59170;BME280;52474;52.236;5.114;2023-02-16T04:13:02;102253.94;;;5.35;100.00
59170;BME280;52474;52.236;5.114;2023-02-16T04:15:29;102264.06;;;5.45;100.00
59170;BME280;52474;52.236;5.114;2023-02-16T04:17:55;102258.19;;;5.38;100.00
59170;BME280;52474;52.236;5.114;2023-02-16T04:20:24;102264.00;;;5.46;100.00
59170;BME280;52474;52.236;5.114;2023-02-16T04:22:50;102262.34;;;5.44;100.00
59170;BME280;52474;52.236;5.114;2023-02-16T04:25:16;102272.94;;;5.42;100.00
59170;BME280;52474;52.236;5.114;2023-02-16T04:27:43;102266.63;;;5.46;100.00
59170;BME280;52474;52.236;5.114;2023-02-16T04:30:12;102240.94;;;5.32;100.00
59170;BME280;52474;52.236;5.114;2023-02-16T04:32:38;102259.66;;;5.45;100.00
59170;BME280;52474;52.236;5.114;2023-02-16T04:35:05;102263.13;;;5.46;100.00
59170;BME280;52474;52.236;5.114;2023-02-16T04:37:31;102228.22;;;5.22;100.00
59170;BME280;52474;52.236;5.114;2023-02-16T04:39:57;102263.81;;;5.51;100.00
59170;BME280;52474;52.236;5.114;2023-02-16T04:42:22;102262.94;;;5.50;100.00
59170;BME280;52474;52.236;5.114;2023-02-16T04:44:48;102259.63;;;5.47;100.00
59170;BME280;52474;52.236;5.114;2023-02-16T04:47:14;102261.34;;;5.46;100.00
59170;BME280;52474;52.236;5.114;2023-02-16T04:49:40;102241.97;;;5.28;100.00
59170;BME280;52474;52.236;5.114;2023-02-16T04:52:06;102240.06;;;5.32;100.00
59170;BME280;52474;52.236;5.114;2023-02-16T04:54:32;102231.63;;;5.24;100.00
59170;BME280;52474;52.236;5.114;2023-02-16T04:56:59;102260.81;;;5.38;100.00
59170;BME280;52474;52.236;5.114;2023-02-16T04:59:25;102254.78;;;5.36;100.00
59170;BME280;52474;52.236;5.114;2023-02-16T05:01:50;102239.59;;;5.22;100.00
59170;BME280;52474;52.236;5.114;2023-02-16T05:04:18;102237.94;;;5.20;100.00
59170;BME280;52474;52.236;5.114;2023-02-16T05:06:44;102243.56;;;5.32;100.00
59170;BME280;52474;52.236;5.114;2023-02-16T05:09:10;102240.94;;;5.32;100.00
59170;BME280;52474;52.236;5.114;2023-02-16T05:11:36;102255.44;;;5.41;100.00
59170;BME280;52474;52.236;5.114;2023-02-16T05:14:29;102245.72;;;5.43;100.00
59170;BME280;52474;52.236;5.114;2023-02-16T05:17:25;102238.50;;;5.48;100.00
59170;BME280;52474;52.236;5.114;2023-02-16T05:19:54;102222.09;;;5.43;100.00
59170;BME280;52474;52.236;5.114;2023-02-16T05:22:20;102227.19;;;5.46;100.00
59170;BME280;52474;52.236;5.114;2023-02-16T05:24:47;102228.94;;;5.47;100.00
59170;BME280;52474;52.236;5.114;2023-02-16T05:27:19;102212.94;;;5.31;100.00
59170;BME280;52474;52.236;5.114;2023-02-16T05:29:45;102231.69;;;5.44;100.00
59170;BME280;52474;52.236;5.114;2023-02-16T05:32:11;102198.06;;;5.32;100.00
59170;BME280;52474;52.236;5.114;2023-02-16T05:34:39;102226.97;;;5.52;100.00
59170;BME280;52474;52.236;5.114;2023-02-16T05:37:06;102222.69;;;5.50;100.00
59170;BME280;52474;52.236;5.114;2023-02-16T05:39:32;102229.41;;;5.57;100.00
59170;BME280;52474;52.236;5.114;2023-02-16T05:41:57;102232.81;;;5.59;100.00
59170;BME280;52474;52.236;5.114;2023-02-16T05:44:23;102238.00;;;5.60;100.00
59170;BME280;52474;52.236;5.114;2023-02-16T05:46:49;102239.97;;;5.55;100.00
59170;BME280;52474;52.236;5.114;2023-02-16T05:49:15;102233.00;;;5.54;100.00
59170;BME280;52474;52.236;5.114;2023-02-16T05:51:42;102240.72;;;5.59;100.00
59170;BME280;52474;52.236;5.114;2023-02-16T05:54:09;102202.38;;;5.33;100.00
59170;BME280;52474;52.236;5.114;2023-02-16T05:56:46;102242.41;;;5.60;100.00
59170;BME280;52474;52.236;5.114;2023-02-16T05:59:13;102248.59;;;5.59;100.00
59170;BME280;52474;52.236;5.114;2023-02-16T06:01:39;102254.75;;;5.58;100.00
59170;BME280;52474;52.236;5.114;2023-02-16T06:04:10;102211.56;;;5.43;100.00
59170;BME280;52474;52.236;5.114;2023-02-16T06:06:37;102245.81;;;5.62;100.00
59170;BME280;52474;52.236;5.114;2023-02-16T06:09:07;102239.59;;;5.65;100.00
59170;BME280;52474;52.236;5.114;2023-02-16T06:11:33;102238.53;;;5.69;100.00
59170;BME280;52474;52.236;5.114;2023-02-16T06:14:07;102237.63;;;5.70;100.00
59170;BME280;52474;52.236;5.114;2023-02-16T06:16:34;102239.31;;;5.71;100.00
59170;BME280;52474;52.236;5.114;2023-02-16T06:19:00;102227.16;;;5.68;100.00
59170;BME280;52474;52.236;5.114;2023-02-16T06:21:27;102173.28;;;5.37;100.00
59170;BME280;52474;52.236;5.114;2023-02-16T06:23:56;102210.69;;;5.65;100.00
59170;BME280;52474;52.236;5.114;2023-02-16T06:26:22;102245.31;;;5.74;100.00
59170;BME280;52474;52.236;5.114;2023-02-16T06:28:47;102223.06;;;5.61;100.00
59170;BME280;52474;52.236;5.114;2023-02-16T06:31:13;102233.59;;;5.61;100.00
59170;BME280;52474;52.236;5.114;2023-02-16T06:33:39;102242.34;;;5.62;100.00
59170;BME280;52474;52.236;5.114;2023-02-16T06:36:06;102243.16;;;5.64;100.00
59170;BME280;52474;52.236;5.114;2023-02-16T06:38:32;102250.69;;;5.71;100.00
59170;BME280;52474;52.236;5.114;2023-02-16T06:40:57;102242.88;;;5.70;100.00
59170;BME280;52474;52.236;5.114;2023-02-16T06:43:26;102244.50;;;5.72;100.00
59170;BME280;52474;52.236;5.114;2023-02-16T06:45:52;102255.81;;;5.74;100.00
59170;BME280;52474;52.236;5.114;2023-02-16T06:48:17;102260.16;;;5.75;100.00
59170;BME280;52474;52.236;5.114;2023-02-16T06:50:43;102256.84;;;5.70;100.00
59170;BME280;52474;52.236;5.114;2023-02-16T06:53:09;102232.63;;;5.64;100.00
59170;BME280;52474;52.236;5.114;2023-02-16T06:55:35;102253.84;;;5.79;100.00
59170;BME280;52474;52.236;5.114;2023-02-16T06:58:02;102252.91;;;5.80;100.00
59170;BME280;52474;52.236;5.114;2023-02-16T07:00:29;102254.66;;;5.81;100.00
59170;BME280;52474;52.236;5.114;2023-02-16T07:02:55;102256.28;;;5.84;100.00
59170;BME280;52474;52.236;5.114;2023-02-16T07:05:20;102263.13;;;5.88;100.00
59170;BME280;52474;52.236;5.114;2023-02-16T07:07:46;102279.66;;;5.90;100.00
59170;BME280;52474;52.236;5.114;2023-02-16T07:10:12;102260.69;;;5.84;100.00
59170;BME280;52474;52.236;5.114;2023-02-16T07:12:39;102266.47;;;5.92;100.00
59170;BME280;52474;52.236;5.114;2023-02-16T07:15:06;102269.94;;;5.94;100.00
59170;BME280;52474;52.236;5.114;2023-02-16T07:17:32;102266.41;;;5.93;100.00
59170;BME280;52474;52.236;5.114;2023-02-16T07:19:58;102276.81;;;5.96;100.00
59170;BME280;52474;52.236;5.114;2023-02-16T07:22:24;102273.22;;;5.99;100.00
59170;BME280;52474;52.236;5.114;2023-02-16T07:24:50;102271.47;;;5.98;100.00
59170;BME280;52474;52.236;5.114;2023-02-16T07:27:16;102274.06;;;5.99;100.00
59170;BME280;52474;52.236;5.114;2023-02-16T07:29:42;102275.84;;;5.99;100.00
59170;BME280;52474;52.236;5.114;2023-02-16T07:32:09;102260.41;;;5.90;100.00
59170;BME280;52474;52.236;5.114;2023-02-16T07:34:34;102284.53;;;6.01;100.00
59170;BME280;52474;52.236;5.114;2023-02-16T07:37:00;102283.72;;;5.99;100.00
59170;BME280;52474;52.236;5.114;2023-02-16T07:39:26;102285.50;;;5.98;100.00
59170;BME280;52474;52.236;5.114;2023-02-16T07:41:53;102283.00;;;5.95;100.00
59170;BME280;52474;52.236;5.114;2023-02-16T07:44:19;102270.94;;;5.90;100.00
59170;BME280;52474;52.236;5.114;2023-02-16T07:46:45;102290.50;;;6.05;100.00
59170;BME280;52474;52.236;5.114;2023-02-16T07:49:11;102285.38;;;6.01;100.00
59170;BME280;52474;52.236;5.114;2023-02-16T07:51:36;102287.94;;;6.03;100.00
59170;BME280;52474;52.236;5.114;2023-02-16T07:54:05;102298.97;;;6.11;100.00
59170;BME280;52474;52.236;5.114;2023-02-16T07:56:31;102291.00;;;6.13;100.00
59170;BME280;52474;52.236;5.114;2023-02-16T07:58:59;102298.84;;;6.14;100.00
59170;BME280;52474;52.236;5.114;2023-02-16T08:01:26;102298.03;;;6.12;100.00
59170;BME280;52474;52.236;5.114;2023-02-16T08:03:52;102297.00;;;6.16;100.00
59170;BME280;52474;52.236;5.114;2023-02-16T08:06:19;102286.88;;;6.07;100.00
59170;BME280;52474;52.236;5.114;2023-02-16T08:08:48;102303.13;;;6.17;100.00
59170;BME280;52474;52.236;5.114;2023-02-16T08:11:22;102302.22;;;6.18;100.00
59170;BME280;52474;52.236;5.114;2023-02-16T08:13:49;102298.97;;;6.11;100.00
59170;BME280;52474;52.236;5.114;2023-02-16T08:16:18;102298.97;;;6.11;100.00
59170;BME280;52474;52.236;5.114;2023-02-16T08:18:47;102303.44;;;6.09;100.00
59170;BME280;52474;52.236;5.114;2023-02-16T08:21:18;102303.59;;;6.06;100.00
59170;BME280;52474;52.236;5.114;2023-02-16T08:23:46;102301.28;;;5.98;100.00
59170;BME280;52474;52.236;5.114;2023-02-16T08:26:15;102313.91;;;6.11;100.00
59170;BME280;52474;52.236;5.114;2023-02-16T08:28:46;102325.19;;;6.13;100.00
59170;BME280;52474;52.236;5.114;2023-02-16T08:31:16;102298.53;;;6.01;100.00
59170;BME280;52474;52.236;5.114;2023-02-16T08:33:44;102312.94;;;6.13;100.00
59170;BME280;52474;52.236;5.114;2023-02-16T08:36:25;102314.56;;;6.16;100.00
59170;BME280;52474;52.236;5.114;2023-02-16T08:38:52;102280.75;;;5.86;100.00
59170;BME280;52474;52.236;5.114;2023-02-16T08:41:23;102322.31;;;6.19;100.00
59170;BME280;52474;52.236;5.114;2023-02-16T08:43:50;102313.38;;;6.02;100.00
59170;BME280;52474;52.236;5.114;2023-02-16T08:46:17;102325.94;;;6.16;100.00
59170;BME280;52474;52.236;5.114;2023-02-16T08:48:46;102325.19;;;6.13;100.00
59170;BME280;52474;52.236;5.114;2023-02-16T08:51:17;102306.66;;;5.95;100.00
59170;BME280;52474;52.236;5.114;2023-02-16T08:53:45;102334.41;;;6.02;100.00
59170;BME280;52474;52.236;5.114;2023-02-16T08:56:11;102342.56;;;5.96;100.00
59170;BME280;52474;52.236;5.114;2023-02-16T08:58:37;102340.16;;;5.90;100.00
59170;BME280;52474;52.236;5.114;2023-02-16T09:01:05;102339.16;;;5.93;100.00
59170;BME280;52474;52.236;5.114;2023-02-16T09:03:33;102322.81;;;5.86;100.00
59170;BME280;52474;52.236;5.114;2023-02-16T09:06:11;102332.44;;;5.86;100.00
59170;BME280;52474;52.236;5.114;2023-02-16T09:08:38;102297.94;;;5.73;100.00
59170;BME280;52474;52.236;5.114;2023-02-16T09:11:06;102316.16;;;5.77;100.00
59170;BME280;52474;52.236;5.114;2023-02-16T09:13:38;102323.72;;;5.85;100.00
59170;BME280;52474;52.236;5.114;2023-02-16T09:16:19;102327.28;;;5.84;100.00
59170;BME280;52474;52.236;5.114;2023-02-16T09:18:51;102326.34;;;5.85;100.00
59170;BME280;52474;52.236;5.114;2023-02-16T09:21:22;102303.84;;;5.78;100.00
59170;BME280;52474;52.236;5.114;2023-02-16T09:24:03;102320.53;;;5.99;100.00
59170;BME280;52474;52.236;5.114;2023-02-16T09:26:33;102274.16;;;5.76;100.00
59170;BME280;52474;52.236;5.114;2023-02-16T09:29:00;102316.25;;;6.17;100.00
59170;BME280;52474;52.236;5.114;2023-02-16T09:31:29;102325.34;;;6.30;100.00
59170;BME280;52474;52.236;5.114;2023-02-16T09:34:14;102330.38;;;6.35;100.00
59170;BME280;52474;52.236;5.114;2023-02-16T09:36:41;102325.06;;;6.36;100.00
59170;BME280;52474;52.236;5.114;2023-02-16T09:39:07;102318.47;;;6.47;100.00
59170;BME280;52474;52.236;5.114;2023-02-16T09:46:42;102330.81;;;6.84;100.00
59170;BME280;52474;52.236;5.114;2023-02-16T09:52:00;102334.63;;;6.97;100.00
59170;BME280;52474;52.236;5.114;2023-02-16T09:54:52;102338.53;;;7.07;100.00
59170;BME280;52474;52.236;5.114;2023-02-16T09:57:36;102329.19;;;7.19;100.00
59170;BME280;52474;52.236;5.114;2023-02-16T10:00:24;102346.56;;;7.23;100.00
59170;BME280;52474;52.236;5.114;2023-02-16T10:03:04;102340.09;;;7.12;100.00
59170;BME280;52474;52.236;5.114;2023-02-16T10:05:48;102345.53;;;7.26;100.00
59170;BME280;52474;52.236;5.114;2023-02-16T10:08:54;102333.19;;;7.45;100.00
59170;BME280;52474;52.236;5.114;2023-02-16T10:11:24;102298.09;;;7.45;100.00
59170;BME280;52474;52.236;5.114;2023-02-16T10:14:13;102350.88;;;7.80;100.00
59170;BME280;52474;52.236;5.114;2023-02-16T10:19:41;102326.09;;;7.65;100.00
59170;BME280;52474;52.236;5.114;2023-02-16T10:22:12;102331.09;;;7.71;100.00
59170;BME280;52474;52.236;5.114;2023-02-16T10:24:46;102331.72;;;7.76;100.00
59170;BME280;52474;52.236;5.114;2023-02-16T10:27:17;102333.34;;;7.79;100.00
59170;BME280;52474;52.236;5.114;2023-02-16T10:29:46;102326.31;;;7.60;100.00
59170;BME280;52474;52.236;5.114;2023-02-16T10:32:34;102316.44;;;7.83;100.00
59170;BME280;52474;52.236;5.114;2023-02-16T10:35:15;102328.00;;;7.80;100.00
59170;BME280;52474;52.236;5.114;2023-02-16T10:38:07;102312.91;;;7.47;100.00
59170;BME280;52474;52.236;5.114;2023-02-16T10:43:20;102309.56;;;7.44;100.00
59170;BME280;52474;52.236;5.114;2023-02-16T10:48:16;102305.41;;;7.57;100.00
59170;BME280;52474;52.236;5.114;2023-02-16T10:50:49;102313.88;;;7.81;100.00
59170;BME280;52474;52.236;5.114;2023-02-16T10:53:23;102305.72;;;7.68;100.00
59170;BME280;52474;52.236;5.114;2023-02-16T10:55:57;102307.97;;;7.76;100.00
59170;BME280;52474;52.236;5.114;2023-02-16T10:58:32;102303.31;;;7.81;100.00
59170;BME280;52474;52.236;5.114;2023-02-16T11:01:09;102304.56;;;7.91;100.00
59170;BME280;52474;52.236;5.114;2023-02-16T11:03:45;102282.84;;;7.86;100.00
59170;BME280;52474;52.236;5.114;2023-02-16T11:06:21;102302.47;;;7.98;100.00
59170;BME280;52474;52.236;5.114;2023-02-16T11:11:15;102264.84;;;7.77;100.00
59170;BME280;52474;52.236;5.114;2023-02-16T11:13:49;102292.13;;;8.11;100.00
59170;BME280;52474;52.236;5.114;2023-02-16T11:16:22;102296.06;;;8.37;100.00
59170;BME280;52474;52.236;5.114;2023-02-16T11:18:59;102295.81;;;8.59;100.00
59170;BME280;52474;52.236;5.114;2023-02-16T11:21:50;102278.59;;;8.68;100.00
59170;BME280;52474;52.236;5.114;2023-02-16T11:24:27;102291.25;;;8.61;100.00
59170;BME280;52474;52.236;5.114;2023-02-16T11:29:39;102269.47;;;8.73;100.00
59170;BME280;52474;52.236;5.114;2023-02-16T11:32:10;102262.06;;;8.64;100.00
59170;BME280;52474;52.236;5.114;2023-02-16T11:39:47;102297.88;;;9.17;100.00
59170;BME280;52474;52.236;5.114;2023-02-16T11:44:53;102280.19;;;9.94;100.00
59170;BME280;52474;52.236;5.114;2023-02-16T11:47:31;102270.34;;;9.82;100.00
59170;BME280;52474;52.236;5.114;2023-02-16T11:50:18;102270.59;;;10.07;100.00
59170;BME280;52474;52.236;5.114;2023-02-16T11:52:46;102262.66;;;10.22;100.00
59170;BME280;52474;52.236;5.114;2023-02-16T11:55:29;102251.28;;;10.05;100.00
59170;BME280;52474;52.236;5.114;2023-02-16T12:03:55;102228.94;;;11.35;100.00
59170;BME280;52474;52.236;5.114;2023-02-16T12:09:06;102224.38;;;10.42;100.00
59170;BME280;52474;52.236;5.114;2023-02-16T12:11:51;102221.81;;;11.36;100.00
59170;BME280;52474;52.236;5.114;2023-02-16T12:17:48;102195.69;;;11.95;100.00
59170;BME280;52474;52.236;5.114;2023-02-16T12:31:38;102174.19;;;14.91;100.00
59170;BME280;52474;52.236;5.114;2023-02-16T12:43:00;102164.47;;;13.21;100.00
59170;BME280;52474;52.236;5.114;2023-02-16T12:45:32;102150.81;;;12.90;100.00
59170;BME280;52474;52.236;5.114;2023-02-16T12:50:51;102144.84;;;12.62;100.00
59170;BME280;52474;52.236;5.114;2023-02-16T12:53:27;102137.91;;;16.93;100.00
59170;BME280;52474;52.236;5.114;2023-02-16T12:56:00;102148.50;;;16.45;100.00
59170;BME280;52474;52.236;5.114;2023-02-16T12:58:33;102153.19;;;13.41;100.00
59170;BME280;52474;52.236;5.114;2023-02-16T13:01:07;102151.03;;;12.39;100.00
59170;BME280;52474;52.236;5.114;2023-02-16T13:03:52;102143.53;;;11.56;100.00
59170;BME280;52474;52.236;5.114;2023-02-16T13:06:45;102150.56;;;11.82;100.00
59170;BME280;52474;52.236;5.114;2023-02-16T13:17:41;102133.28;;;11.90;100.00
59170;BME280;52474;52.236;5.114;2023-02-16T13:20:15;102135.13;;;11.24;100.00
59170;BME280;52474;52.236;5.114;2023-02-16T13:25:54;102122.75;;;11.50;100.00
59170;BME280;52474;52.236;5.114;2023-02-16T13:31:31;102090.38;;;11.57;100.00
59170;BME280;52474;52.236;5.114;2023-02-16T13:37:21;102091.53;;;11.41;100.00
59170;BME280;52474;52.236;5.114;2023-02-16T13:45:14;102084.66;;;11.51;100.00
59170;BME280;52474;52.236;5.114;2023-02-16T13:47:43;102072.00;;;11.29;100.00
59170;BME280;52474;52.236;5.114;2023-02-16T13:50:41;102077.31;;;11.16;100.00
59170;BME280;52474;52.236;5.114;2023-02-16T13:53:14;102068.50;;;11.03;100.00
59170;BME280;52474;52.236;5.114;2023-02-16T13:55:45;102075.72;;;11.13;100.00
59170;BME280;52474;52.236;5.114;2023-02-16T14:00:40;102080.13;;;10.87;100.00
59170;BME280;52474;52.236;5.114;2023-02-16T14:06:30;102054.19;;;10.65;100.00
59170;BME280;52474;52.236;5.114;2023-02-16T14:22:48;102041.91;;;10.10;100.00
59170;BME280;52474;52.236;5.114;2023-02-16T14:35:37;102053.78;;;10.17;100.00
59170;BME280;52474;52.236;5.114;2023-02-16T14:38:36;102051.53;;;10.11;100.00
59170;BME280;52474;52.236;5.114;2023-02-16T14:41:11;102064.09;;;10.22;100.00
59170;BME280;52474;52.236;5.114;2023-02-16T14:43:45;102060.97;;;10.29;100.00
59170;BME280;52474;52.236;5.114;2023-02-16T15:00:00;102079.09;;;9.51;100.00
59170;BME280;52474;52.236;5.114;2023-02-16T15:02:34;102066.69;;;9.37;100.00
59170;BME280;52474;52.236;5.114;2023-02-16T15:05:22;102073.03;;;9.35;100.00
59170;BME280;52474;52.236;5.114;2023-02-16T15:08:18;102073.69;;;9.24;100.00
59170;BME280;52474;52.236;5.114;2023-02-16T15:10:44;102073.47;;;9.13;100.00
59170;BME280;52474;52.236;5.114;2023-02-16T15:13:23;102078.88;;;9.11;100.00
59170;BME280;52474;52.236;5.114;2023-02-16T15:15:55;102072.13;;;8.91;100.00
59170;BME280;52474;52.236;5.114;2023-02-16T15:18:25;102067.38;;;8.82;100.00
59170;BME280;52474;52.236;5.114;2023-02-16T15:20:54;102059.31;;;8.69;100.00
59170;BME280;52474;52.236;5.114;2023-02-16T15:28:28;102089.03;;;8.73;100.00
59170;BME280;52474;52.236;5.114;2023-02-16T15:31:00;102093.47;;;8.72;100.00
59170;BME280;52474;52.236;5.114;2023-02-16T15:34:01;102082.31;;;8.67;100.00
59170;BME280;52474;52.236;5.114;2023-02-16T15:36:41;102072.44;;;8.55;100.00
59170;BME280;52474;52.236;5.114;2023-02-16T15:39:14;102080.69;;;8.65;100.00
59170;BME280;52474;52.236;5.114;2023-02-16T15:41:44;102077.47;;;8.59;100.00
59170;BME280;52474;52.236;5.114;2023-02-16T15:47:08;102077.03;;;8.51;100.00
59170;BME280;52474;52.236;5.114;2023-02-16T15:49:34;102071.34;;;8.43;100.00
59170;BME280;52474;52.236;5.114;2023-02-16T15:52:17;102082.44;;;8.50;100.00
59170;BME280;52474;52.236;5.114;2023-02-16T15:54:45;102079.03;;;8.48;100.00